Time;durP1;ratioP1;P1;durP2;ratioP2;P2;SDS_P1;SDS_P2;PMS_P1;PMS_P2;Temp;Humidity;BMP_temperature;BMP_pressure;BME280_temperature;BME280_humidity;BME280_pressure;Samples;Min_cycle;Max_cycle;Signal;HPM_P1;HPM_P2
2024/04/20 00:00:18;;;;;;;7.38;2.17;;;7.00;99.90;;;;;;5344837;26;20040;-42
2024/04/20 00:02:43;;;;;;;7.57;3.25;;;7.00;99.90;;;;;;5344889;26;20000;-47
2024/04/20 00:05:09;;;;;;;5.68;2.38;;;7.10;99.90;;;;;;5345046;26;19996;-50
2024/04/20 00:07:34;;;;;;;4.18;1.60;;;7.10;99.90;;;;;;5345392;26;20001;-46
2024/04/20 00:10:00;;;;;;;5.65;1.70;;;7.10;99.90;;;;;;5314230;26;20363;-46
2024/04/20 00:12:25;;;;;;;5.22;1.90;;;7.20;99.90;;;;;;5344123;26;20007;-50
2024/04/20 00:14:54;;;;;;;9.10;1.98;;;7.20;99.90;;;;;;5314379;26;19997;-50
2024/04/20 00:17:19;;;;;;;4.65;1.85;;;7.20;99.90;;;;;;5344878;26;20071;-52
2024/04/20 00:19:45;;;;;;;7.45;2.55;;;7.20;99.90;;;;;;5345179;26;20009;-49
2024/04/20 00:22:12;;;;;;;7.38;2.20;;;7.10;99.90;;;;;;5344567;26;20359;-51
2024/04/20 00:24:38;;;;;;;7.18;2.50;;;7.10;99.90;;;;;;5344712;26;20037;-51
2024/04/20 00:27:05;;;;;;;7.63;2.47;;;7.20;99.90;;;;;;5314209;26;20008;-52
2024/04/20 00:29:31;;;;;;;5.05;2.40;;;7.20;99.90;;;;;;5345061;26;20011;-49
2024/04/20 00:31:57;;;;;;;6.07;2.58;;;7.20;99.90;;;;;;5314268;26;20008;-49
2024/04/20 00:34:22;;;;;;;5.20;2.60;;;7.30;99.90;;;;;;5345435;26;20039;-45
2024/04/20 00:36:51;;;;;;;9.18;2.75;;;7.10;99.90;;;;;;5315124;26;20025;-51
2024/04/20 00:39:17;;;;;;;9.18;3.05;;;7.10;99.90;;;;;;5345306;26;20011;-48
2024/04/20 00:41:47;;;;;;;8.60;3.10;;;7.00;99.90;;;;;;5344428;26;19997;-50
2024/04/20 00:44:13;;;;;;;3.45;2.53;;;7.00;99.90;;;;;;5344318;26;20012;-50
2024/04/20 00:46:38;;;;;;;7.60;3.72;;;7.00;99.90;;;;;;5344389;26;20337;-51
2024/04/20 00:49:04;;;;;;;5.85;2.83;;;6.90;99.90;;;;;;5344476;26;20000;-47
2024/04/20 00:51:30;;;;;;;3.10;2.80;;;6.90;99.90;;;;;;5313665;26;20459;-46
2024/04/20 00:53:58;;;;;;;8.60;3.47;;;6.90;99.90;;;;;;5343922;26;20012;-47
2024/04/20 00:56:24;;;;;;;7.63;3.10;;;6.90;99.90;;;;;;5344964;26;20376;-45
2024/04/20 00:58:50;;;;;;;7.93;3.03;;;6.90;99.90;;;;;;5344376;26;20001;-48
2024/04/20 01:01:16;;;;;;;10.90;3.30;;;7.00;99.90;;;;;;5343664;26;20025;-53
2024/04/20 01:03:43;;;;;;;10.52;4.30;;;7.00;99.90;;;;;;5313733;26;20483;-45
2024/04/20 01:06:08;;;;;;;7.10;3.25;;;7.00;99.90;;;;;;5344204;26;20001;-44
2024/04/20 01:08:34;;;;;;;8.18;3.65;;;7.00;99.90;;;;;;5313445;26;20008;-46
2024/04/20 01:11:00;;;;;;;5.28;3.35;;;7.00;99.90;;;;;;5343427;26;19997;-45
2024/04/20 01:13:29;;;;;;;6.82;3.03;;;7.10;99.90;;;;;;5313559;26;20007;-48
2024/04/20 01:15:54;;;;;;;10.75;3.63;;;7.10;99.90;;;;;;5286102;26;19997;-45
2024/04/20 01:18:20;;;;;;;7.78;3.63;;;7.20;99.90;;;;;;5344120;26;20007;-46
2024/04/20 01:20:47;;;;;;;3.42;2.88;;;7.20;99.90;;;;;;5313198;26;20000;-47
2024/04/20 01:23:13;;;;;;;4.25;2.92;;;7.00;99.90;;;;;;5344327;26;19997;-46
2024/04/20 01:25:48;;;;;;;4.00;2.45;;;7.00;99.90;;;;;;5344926;26;20008;-49
2024/04/20 01:28:14;;;;;;;5.90;2.38;;;7.00;99.90;;;;;;5313543;26;20017;-48
2024/04/20 01:30:40;;;;;;;2.92;2.20;;;7.00;99.90;;;;;;5342843;26;20464;-48
2024/04/20 01:33:06;;;;;;;2.63;2.10;;;7.00;99.90;;;;;;5343353;26;20007;-49
2024/04/20 01:35:31;;;;;;;2.45;2.25;;;6.90;99.90;;;;;;5343711;26;19997;-49
2024/04/20 01:37:57;;;;;;;2.05;1.95;;;6.80;99.90;;;;;;5313116;26;20008;-45
2024/04/20 01:40:23;;;;;;;1.60;1.50;;;6.70;99.90;;;;;;5313055;26;20111;-47
2024/04/20 01:42:48;;;;;;;1.70;1.60;;;6.70;99.90;;;;;;5346446;26;20000;-51
2024/04/20 01:45:14;;;;;;;2.42;1.42;;;6.60;99.90;;;;;;5316370;26;20331;-45
2024/04/20 01:47:40;;;;;;;1.13;1.13;;;6.60;99.90;;;;;;5346991;26;20016;-46
2024/04/20 01:50:06;;;;;;;2.25;1.70;;;6.60;99.90;;;;;;5347335;26;20007;-46
2024/04/20 01:52:32;;;;;;;4.00;1.48;;;6.60;99.90;;;;;;5346317;26;19993;-49
2024/04/20 01:54:58;;;;;;;4.50;1.55;;;6.60;99.90;;;;;;5346992;26;19997;-46
2024/04/20 01:57:24;;;;;;;2.30;1.35;;;6.50;99.90;;;;;;5346904;26;19997;-48
2024/04/20 01:59:49;;;;;;;3.83;1.35;;;6.40;99.90;;;;;;5316148;26;20008;-46
2024/04/20 02:02:15;;;;;;;4.05;1.40;;;6.40;99.90;;;;;;5346462;26;20001;-46
2024/04/20 02:04:40;;;;;;;1.83;1.30;;;6.40;99.90;;;;;;5315876;26;20075;-48
2024/04/20 02:07:06;;;;;;;1.95;1.30;;;6.30;99.90;;;;;;5346789;26;20001;-46
2024/04/20 02:09:32;;;;;;;1.30;1.20;;;6.30;99.90;;;;;;5346503;26;20071;-49
2024/04/20 02:11:58;;;;;;;1.85;1.10;;;6.20;99.90;;;;;;5316171;26;20441;-46
2024/04/20 02:14:24;;;;;;;1.25;1.15;;;6.20;99.90;;;;;;5346517;26;19997;-49
2024/04/20 02:16:50;;;;;;;1.55;1.42;;;6.10;99.90;;;;;;5346559;26;20096;-51
2024/04/20 02:19:15;;;;;;;3.03;1.50;;;6.00;99.90;;;;;;5346846;26;20005;-46
2024/04/20 02:21:41;;;;;;;2.38;1.38;;;5.90;99.90;;;;;;5315560;26;20364;-47
2024/04/20 02:24:06;;;;;;;1.98;1.33;;;5.80;99.90;;;;;;5315978;26;20075;-45
2024/04/20 02:26:32;;;;;;;3.10;1.52;;;5.70;99.90;;;;;;5346693;26;20000;-53
2024/04/20 02:28:57;;;;;;;1.58;1.48;;;5.60;99.90;;;;;;5349201;26;20312;-47
2024/04/20 02:31:23;;;;;;;5.22;1.83;;;5.50;99.90;;;;;;5317400;26;19997;-48
2024/04/20 02:33:48;;;;;;;3.35;1.58;;;5.50;99.90;;;;;;5346715;26;19997;-48
2024/04/20 02:36:14;;;;;;;4.00;1.83;;;5.50;99.90;;;;;;5346329;26;20001;-48
2024/04/20 02:38:40;;;;;;;4.15;1.90;;;5.40;99.90;;;;;;5346444;26;20008;-47
2024/04/20 02:41:05;;;;;;;4.35;1.70;;;5.40;99.90;;;;;;5315330;26;19997;-43
2024/04/20 02:43:31;;;;;;;3.45;1.70;;;5.30;99.90;;;;;;5315456;26;20007;-46
2024/04/20 02:45:56;;;;;;;3.25;2.28;;;5.30;99.90;;;;;;5345494;26;20103;-49
2024/04/20 02:48:22;;;;;;;3.30;2.03;;;5.30;99.90;;;;;;5315681;26;20012;-46
2024/04/20 02:50:47;;;;;;;4.60;1.95;;;5.30;99.90;;;;;;5345532;26;19997;-45
2024/04/20 02:53:13;;;;;;;2.28;1.90;;;5.20;99.90;;;;;;5344648;26;20452;-48
2024/04/20 02:55:38;;;;;;;2.20;1.70;;;5.10;99.90;;;;;;5315286;26;19997;-46
2024/04/20 02:58:04;;;;;;;5.03;2.03;;;5.10;99.90;;;;;;5346048;26;20001;-46
2024/04/20 03:00:29;;;;;;;4.40;2.08;;;5.10;99.90;;;;;;5345195;26;20001;-45
2024/04/20 03:02:55;;;;;;;4.13;2.45;;;5.20;99.90;;;;;;5345603;26;20008;-47
2024/04/20 03:05:20;;;;;;;4.25;2.10;;;5.10;99.90;;;;;;5345578;26;20279;-45
2024/04/20 03:07:46;;;;;;;5.75;2.35;;;5.10;99.90;;;;;;5315217;26;20037;-47
2024/04/20 03:10:12;;;;;;;4.05;3.22;;;5.10;99.90;;;;;;5345391;26;20015;-47
2024/04/20 03:12:37;;;;;;;5.25;2.55;;;5.10;99.90;;;;;;5345292;26;20041;-45
2024/04/20 03:15:03;;;;;;;6.43;2.10;;;5.10;99.90;;;;;;5345550;26;19996;-45
2024/04/20 03:17:28;;;;;;;8.25;2.58;;;5.20;99.90;;;;;;5345660;26;20037;-45
2024/04/20 03:19:54;;;;;;;2.92;2.10;;;5.10;99.90;;;;;;5345822;26;20001;-47
2024/04/20 03:22:20;;;;;;;5.95;2.38;;;5.10;99.90;;;;;;5344620;26;20006;-44
2024/04/20 03:24:46;;;;;;;3.42;2.47;;;5.10;99.90;;;;;;5314891;26;19997;-46
2024/04/20 03:27:11;;;;;;;3.97;2.47;;;5.10;99.90;;;;;;5345718;26;20400;-47
2024/04/20 03:29:37;;;;;;;5.72;2.60;;;5.20;99.90;;;;;;5345440;26;20008;-47
2024/04/20 03:32:02;;;;;;;4.30;2.83;;;5.10;99.90;;;;;;5344772;26;20044;-50
2024/04/20 03:34:28;;;;;;;4.32;2.85;;;5.20;99.90;;;;;;5314777;26;20387;-47
2024/04/20 03:36:53;;;;;;;6.63;2.85;;;5.20;99.90;;;;;;5345279;26;19997;-47
2024/04/20 03:39:19;;;;;;;7.22;2.95;;;5.20;99.90;;;;;;5345577;26;20001;-45
2024/04/20 03:41:45;;;;;;;8.20;3.10;;;5.30;99.90;;;;;;5344814;26;20001;-50
2024/04/20 03:44:13;;;;;;;3.65;2.83;;;5.30;99.90;;;;;;5314518;26;20083;-48
2024/04/20 03:46:39;;;;;;;6.35;3.03;;;5.30;99.90;;;;;;5345170;26;20346;-51
2024/04/20 03:49:04;;;;;;;7.75;3.20;;;5.40;99.90;;;;;;5345183;26;20000;-49
2024/04/20 03:51:30;;;;;;;7.20;2.80;;;5.40;99.90;;;;;;5344586;26;20141;-48
2024/04/20 03:53:55;;;;;;;5.82;3.72;;;5.50;99.90;;;;;;5345011;26;20027;-46
2024/04/20 03:56:21;;;;;;;6.50;2.63;;;5.50;99.90;;;;;;5344616;26;20001;-50
2024/04/20 03:58:49;;;;;;;11.23;2.72;;;5.50;99.90;;;;;;5345341;26;20001;-47
2024/04/20 04:01:14;;;;;;;4.47;2.70;;;5.60;99.90;;;;;;5314457;26;20418;-45
2024/04/20 04:03:40;;;;;;;3.08;2.75;;;5.60;99.90;;;;;;5344635;26;20087;-47
2024/04/20 04:06:05;;;;;;;4.50;2.72;;;5.60;99.90;;;;;;5345167;26;20021;-46
2024/04/20 04:08:31;;;;;;;9.32;3.42;;;5.70;99.90;;;;;;5344456;26;20004;-47
2024/04/20 04:10:56;;;;;;;3.15;2.80;;;5.80;99.90;;;;;;5313694;26;20001;-48
2024/04/20 04:13:22;;;;;;;8.65;3.10;;;5.80;99.90;;;;;;5346188;26;20001;-49
2024/04/20 04:15:48;;;;;;;11.05;3.30;;;5.70;99.90;;;;;;5346476;26;19997;-46
2024/04/20 04:18:15;;;;;;;5.40;2.63;;;5.70;99.90;;;;;;5314848;26;20369;-44
2024/04/20 04:20:40;;;;;;;3.67;3.38;;;5.70;99.90;;;;;;5313921;26;20007;-46
2024/04/20 04:23:06;;;;;;;7.53;3.30;;;5.70;99.90;;;;;;5344679;26;20005;-49
2024/04/20 04:25:32;;;;;;;5.70;3.38;;;5.80;99.90;;;;;;5344572;26;20005;-47
2024/04/20 04:27:58;;;;;;;5.03;3.72;;;5.80;99.90;;;;;;5344910;26;19997;-47
2024/04/20 04:30:24;;;;;;;6.00;3.92;;;5.90;99.90;;;;;;5344577;26;20456;-45
2024/04/20 04:32:49;;;;;;;9.50;3.75;;;5.90;99.90;;;;;;5313753;26;20009;-45
2024/04/20 04:35:15;;;;;;;5.80;3.67;;;6.00;99.90;;;;;;5344191;26;20009;-47
2024/04/20 04:37:41;;;;;;;8.05;4.22;;;6.40;99.90;;;;;;5344629;26;20000;-47
2024/04/20 04:40:06;;;;;;;7.35;5.13;;;6.00;99.90;;;;;;5314068;26;20329;-46
2024/04/20 04:42:32;;;;;;;10.15;4.20;;;6.00;99.90;;;;;;5343835;26;20008;-49
2024/04/20 04:44:59;;;;;;;6.15;3.88;;;6.00;99.90;;;;;;5344328;26;19997;-46
2024/04/20 04:47:24;;;;;;;6.38;4.32;;;6.00;99.90;;;;;;5344388;26;20008;-46
2024/04/20 04:49:50;;;;;;;13.85;4.63;;;6.10;99.90;;;;;;5344485;26;20339;-45
2024/04/20 04:52:16;;;;;;;6.82;3.88;;;6.10;99.90;;;;;;5343684;26;20004;-47
2024/04/20 04:54:42;;;;;;;7.90;4.28;;;6.20;99.90;;;;;;5344095;26;20344;-47
2024/04/20 04:57:08;;;;;;;4.55;4.15;;;6.20;99.90;;;;;;5313856;26;20025;-47
2024/04/20 04:59:34;;;;;;;11.63;4.25;;;6.20;99.90;;;;;;5313846;26;19997;-49
2024/04/20 05:02:00;;;;;;;8.32;5.03;;;6.20;99.90;;;;;;5343876;26;20001;-47
2024/04/20 05:04:26;;;;;;;6.60;4.47;;;6.20;99.90;;;;;;5343977;26;20479;-46
2024/04/20 05:06:52;;;;;;;11.35;4.18;;;6.30;99.90;;;;;;5344122;26;19997;-48
2024/04/20 05:09:17;;;;;;;9.55;5.07;;;6.30;99.90;;;;;;5312732;26;20422;-45
2024/04/20 05:11:43;;;;;;;5.22;4.72;;;6.40;99.90;;;;;;5369350;21;20148;-48
2024/04/20 05:14:08;;;;;;;8.85;4.53;;;6.40;99.90;;;;;;5376927;26;19996;-51
2024/04/20 05:16:34;;;;;;;17.73;5.68;;;6.60;99.90;;;;;;5379916;26;19992;-51
2024/04/20 05:18:59;;;;;;;14.15;5.45;;;6.60;99.90;;;;;;5382404;26;20006;-51
2024/04/20 05:21:25;;;;;;;4.97;4.43;;;7.00;99.90;;;;;;5378403;26;20004;-51
2024/04/20 05:23:50;;;;;;;9.98;4.28;;;6.80;99.90;;;;;;5346992;26;20039;-50
2024/04/20 05:26:16;;;;;;;9.70;4.40;;;7.30;99.90;;;;;;5346911;26;20009;-48
2024/04/20 05:28:42;;;;;;;4.80;3.88;;;7.70;99.90;;;;;;5345453;26;20704;-51
2024/04/20 05:31:08;;;;;;;4.63;3.83;;;7.80;99.90;;;;;;5344884;26;20005;-52
2024/04/20 05:33:33;;;;;;;8.90;4.57;;;8.00;99.90;;;;;;5345112;26;20003;-53
2024/04/20 05:36:05;;;;;;;6.30;3.70;;;8.20;99.90;;;;;;5347015;26;19997;-51
2024/04/20 05:38:31;;;;;;;5.68;3.72;;;8.40;99.90;;;;;;5346850;26;20078;-52
2024/04/20 05:40:56;;;;;;;8.13;3.88;;;8.30;99.90;;;;;;5346676;26;20012;-50
2024/04/20 05:43:22;;;;;;;8.95;5.65;;;8.10;99.90;;;;;;5346386;26;20001;-53
2024/04/20 05:45:47;;;;;;;6.85;4.05;;;8.10;99.90;;;;;;5346865;26;20079;-55
2024/04/20 05:48:13;;;;;;;7.60;3.90;;;7.90;99.90;;;;;;5346952;26;20001;-55
2024/04/20 05:50:38;;;;;;;9.25;4.10;;;7.90;99.90;;;;;;5346676;26;20016;-51
2024/04/20 05:53:06;;;;;;;9.70;4.40;;;7.80;99.90;;;;;;5345367;26;19993;-55
2024/04/20 05:55:34;;;;;;;6.80;4.25;;;7.70;99.90;;;;;;5346792;26;20074;-51
2024/04/20 05:57:59;;;;;;;7.85;4.13;;;7.70;99.90;;;;;;5346979;26;19997;-55
2024/04/20 06:00:25;;;;;;;9.18;4.70;;;7.60;99.90;;;;;;5347041;26;20024;-50
2024/04/20 06:02:50;;;;;;;7.30;4.63;;;7.60;99.90;;;;;;5346348;26;20012;-51
2024/04/20 06:05:16;;;;;;;6.97;4.32;;;7.60;99.90;;;;;;5346576;26;20074;-52
2024/04/20 06:07:41;;;;;;;9.02;4.80;;;7.70;99.90;;;;;;5346847;26;20007;-50
2024/04/20 06:10:07;;;;;;;4.78;4.22;;;7.70;99.90;;;;;;5346146;26;20052;-50
2024/04/20 06:12:33;;;;;;;7.20;4.38;;;7.80;99.90;;;;;;5346434;26;19997;-50
2024/04/20 06:14:58;;;;;;;5.00;3.97;;;7.80;99.90;;;;;;5346054;26;20008;-54
2024/04/20 06:17:24;;;;;;;11.45;4.63;;;7.70;99.90;;;;;;5346658;26;20005;-52
2024/04/20 06:19:49;;;;;;;6.03;3.75;;;7.60;99.90;;;;;;5346409;26;20005;-52
2024/04/20 06:22:15;;;;;;;5.93;4.32;;;7.70;99.90;;;;;;5344109;26;20005;-52
2024/04/20 06:24:41;;;;;;;6.15;3.90;;;7.70;99.90;;;;;;5344570;26;20000;-52
2024/04/20 06:27:07;;;;;;;12.55;4.35;;;7.80;99.90;;;;;;5344174;26;20011;-52
2024/04/20 06:29:33;;;;;;;10.07;4.60;;;7.90;99.90;;;;;;5346059;26;20347;-53
2024/04/20 06:31:59;;;;;;;6.45;3.95;;;7.90;99.90;;;;;;5345691;26;20001;-52
2024/04/20 06:34:24;;;;;;;6.88;4.22;;;7.90;99.90;;;;;;5346532;26;20000;-51
2024/04/20 06:36:50;;;;;;;4.38;3.70;;;8.00;99.90;;;;;;5344573;26;20428;-50
2024/04/20 06:39:16;;;;;;;10.98;3.60;;;8.20;99.90;;;;;;5346003;26;20074;-46
2024/04/20 06:41:42;;;;;;;12.23;3.92;;;8.60;99.90;;;;;;5344093;26;20452;-54
2024/04/20 06:44:07;;;;;;;10.02;4.38;;;8.80;99.90;;;;;;5346004;26;20001;-52
2024/04/20 06:46:33;;;;;;;6.00;3.40;;;9.10;99.90;;;;;;5344329;26;20363;-53
2024/04/20 06:48:58;;;;;;;6.25;3.28;;;10.10;99.90;;;;;;5346043;26;20460;-51
2024/04/20 06:51:24;;;;;;;9.10;3.30;;;10.10;99.90;;;;;;5345088;26;20008;-50
2024/04/20 06:53:49;;;;;;;7.88;3.10;;;10.40;99.90;;;;;;5344145;26;19997;-53
2024/04/20 06:56:16;;;;;;;7.32;2.85;;;10.70;99.90;;;;;;5345925;26;20419;-53
2024/04/20 06:58:42;;;;;;;8.52;2.58;;;11.60;99.90;;;;;;5345561;26;20075;-51
2024/04/20 07:01:11;;;;;;;7.82;3.17;;;11.70;99.90;;;;;;5345217;26;20369;-55
2024/04/20 07:03:37;;;;;;;7.30;3.38;;;12.60;99.90;;;;;;5345913;26;20000;-54
2024/04/20 07:06:03;;;;;;;7.47;3.10;;;13.50;99.90;;;;;;5345594;26;20012;-52
2024/04/20 07:08:29;;;;;;;8.02;2.55;;;13.70;99.90;;;;;;5345655;26;20012;-52
2024/04/20 07:10:59;;;;;;;4.63;2.20;;;14.50;98.00;;;;;;5343705;26;20004;-55
2024/04/20 07:13:27;;;;;;;6.18;2.40;;;15.00;97.00;;;;;;5345835;26;20000;-53
2024/04/20 07:15:53;;;;;;;2.97;2.17;;;15.00;96.10;;;;;;5345886;26;20009;-53
2024/04/20 07:18:18;;;;;;;6.70;2.05;;;15.00;96.00;;;;;;5345442;26;20425;-55
2024/04/20 07:20:44;;;;;;;5.38;2.22;;;15.90;95.10;;;;;;5343375;26;19997;-54
2024/04/20 07:23:10;;;;;;;7.13;2.08;;;16.50;94.30;;;;;;5345500;26;19997;-50
2024/04/20 07:25:36;;;;;;;4.22;1.55;;;17.10;93.70;;;;;;5343656;26;19997;-52
2024/04/20 07:28:01;;;;;;;6.63;1.98;;;17.80;92.80;;;;;;5345462;26;20070;-56
2024/04/20 07:30:27;;;;;;;2.88;1.65;;;18.10;92.00;;;;;;5344432;26;20084;-53
2024/04/20 07:32:52;;;;;;;4.22;2.20;;;18.20;91.10;;;;;;5345113;26;19997;-52
2024/04/20 07:35:18;;;;;;;4.82;2.13;;;18.40;90.60;;;;;;5343547;26;20001;-56
2024/04/20 07:37:43;;;;;;;6.35;1.50;;;17.80;90.10;;;;;;5345282;26;20511;-52
2024/04/20 07:40:09;;;;;;;2.38;1.58;;;17.20;90.30;;;;;;5344393;26;20001;-54
2024/04/20 07:42:35;;;;;;;4.57;1.80;;;16.90;90.70;;;;;;5344843;26;20001;-53
2024/04/20 07:45:01;;;;;;;4.80;2.10;;;16.10;92.10;;;;;;5345104;26;20000;-54
2024/04/20 07:47:26;;;;;;;5.32;2.47;;;15.60;91.60;;;;;;5345367;26;20008;-53
2024/04/20 07:49:52;;;;;;;8.13;2.28;;;14.60;93.10;;;;;;5345002;26;20008;-51
2024/04/20 07:52:17;;;;;;;6.15;2.38;;;14.50;93.50;;;;;;5344665;26;20379;-55
2024/04/20 07:54:43;;;;;;;8.85;2.13;;;14.50;94.30;;;;;;5355741;26;20004;-50
2024/04/20 07:57:08;;;;;;;4.95;2.17;;;14.90;94.60;;;;;;5320221;26;20001;-53
2024/04/20 07:59:35;;;;;;;7.68;2.30;;;15.50;94.40;;;;;;5342928;26;20001;-55
2024/04/20 08:02:01;;;;;;;4.22;2.33;;;16.30;92.10;;;;;;5344348;26;20352;-55
2024/04/20 08:04:27;;;;;;;5.85;2.17;;;;;;;;;;5343268;26;20008;-53
2024/04/20 08:06:53;;;;;;;8.90;2.78;;;18.20;95.50;;;;;;5344866;26;20464;-45
2024/04/20 08:09:19;;;;;;;4.85;1.80;;;18.20;87.40;;;;;;5343172;26;20013;-47
2024/04/20 08:11:44;;;;;;;6.97;2.25;;;18.40;86.30;;;;;;5305430;26;1027714;-48
2024/04/20 08:14:10;;;;;;;4.97;2.17;;;18.70;84.60;;;;;;5320609;26;20008;-49
2024/04/20 08:16:36;;;;;;;5.72;2.28;;;18.60;86.90;;;;;;5344867;26;20484;-56
2024/04/20 08:19:03;;;;;;;5.15;2.28;;;18.80;85.00;;;;;;5344371;26;20001;-49
2024/04/20 08:21:29;;;;;;;5.53;1.65;;;18.30;86.00;;;;;;5347708;26;20004;-46
2024/04/20 08:23:54;;;;;;;4.85;2.38;;;19.60;82.40;;;;;;5341906;26;20000;-49
2024/04/20 08:26:20;;;;;;;2.92;2.00;;;19.70;82.00;;;;;;5343830;26;20044;-46
2024/04/20 08:28:45;;;;;;;4.35;1.80;;;19.00;81.40;;;;;;5342872;26;20009;-46
2024/04/20 08:31:11;;;;;;;3.58;1.83;;;17.50;86.90;;;;;;5344184;26;20344;-48
2024/04/20 08:33:36;;;;;;;5.70;1.92;;;18.20;83.50;;;;;;5344392;26;20023;-47
2024/04/20 08:36:02;;;;;;;5.28;1.77;;;17.50;87.50;;;;;;5344042;26;20533;-47
2024/04/20 08:38:28;;;;;;;5.13;2.35;;;17.60;84.40;;;;;;5344279;26;20015;-47
2024/04/20 08:40:59;;;;;;;3.80;1.90;;;18.00;82.40;;;;;;5343889;26;19993;-46
2024/04/20 08:43:28;;;;;;;5.00;1.60;;;17.50;82.20;;;;;;5342277;26;20013;-47
2024/04/20 08:46:02;;;;;;;3.05;1.63;;;17.00;84.70;;;;;;5341778;26;20041;-46
2024/04/20 08:48:28;;;;;;;2.23;1.30;;;18.00;83.00;;;;;;5344058;26;20415;-48
2024/04/20 08:50:55;;;;;;;3.42;1.77;;;18.00;82.00;;;;;;5344164;26;20228;-47
2024/04/20 08:53:21;;;;;;;5.20;2.05;;;18.80;79.60;;;;;;5344980;26;20499;-46
2024/04/20 08:55:48;;;;;;;4.85;1.80;;;18.90;80.20;;;;;;5346990;26;20012;-49
2024/04/20 08:58:14;;;;;;;1.95;1.35;;;18.30;78.40;;;;;;5347237;26;20008;-46
2024/04/20 09:00:42;;;;;;;2.42;1.10;;;16.90;79.10;;;;;;5347118;26;19997;-45
2024/04/20 09:03:08;;;;;;;23.45;17.77;;;16.10;78.20;;;;;;5348855;26;20009;-46
2024/04/20 09:05:34;;;;;;;5.30;2.78;;;16.00;78.90;;;;;;5346814;26;20074;-49
2024/04/20 09:08:01;;;;;;;2.75;1.45;;;15.20;75.90;;;;;;5346526;26;20007;-46
2024/04/20 09:10:27;;;;;;;3.08;1.10;;;14.30;76.90;;;;;;5346961;26;20422;-44
2024/04/20 09:12:52;;;;;;;4.55;1.17;;;14.60;80.30;;;;;;5347101;26;20488;-47
2024/04/20 09:15:20;;;;;;;1.35;0.75;;;14.70;80.10;;;;;;5343881;26;20002;-45
2024/04/20 09:17:46;;;;;;;1.23;0.90;;;14.20;78.90;;;;;;5347215;26;20361;-47
2024/04/20 09:20:12;;;;;;;4.07;1.58;;;14.50;79.00;;;;;;5345283;26;20012;-48
2024/04/20 09:22:38;;;;;;;3.53;1.63;;;14.00;82.90;;;;;;5346315;26;20036;-50
2024/04/20 09:25:05;;;;;;;1.95;0.90;;;13.90;83.00;;;;;;5341917;26;20020;-47
2024/04/20 09:27:32;;;;;;;3.58;2.42;;;13.60;84.50;;;;;;5323083;26;20020;-48
2024/04/20 09:30:03;;;;;;;1.85;0.95;;;13.60;83.90;;;;;;5345632;26;20071;-48
2024/04/20 09:32:34;;;;;;;4.25;1.48;;;13.50;85.40;;;;;;5344313;26;20001;-49
2024/04/20 09:35:00;;;;;;;4.82;1.17;;;13.20;84.70;;;;;;5313091;26;20485;-48
2024/04/20 09:37:25;;;;;;;1.67;1.13;;;13.10;86.00;;;;;;5344792;26;20036;-52
2024/04/20 09:39:55;;;;;;;1.80;1.20;;;13.10;86.50;;;;;;5328927;26;20006;-47
2024/04/20 09:42:22;;;;;;;2.30;0.88;;;13.00;88.70;;;;;;5340337;26;20001;-45
2024/04/20 09:44:50;;;;;;;2.90;1.00;;;13.10;88.50;;;;;;5346205;26;20074;-52
2024/04/20 09:47:19;;;;;;;3.42;1.23;;;12.90;88.40;;;;;;5346185;26;20285;-50
2024/04/20 09:49:50;;;;;;;2.47;1.17;;;12.70;89.00;;;;;;5346636;26;20009;-51
2024/04/20 09:52:39;;;;;;;1.88;1.00;;;12.40;89.40;;;;;;5346195;26;20437;-50
2024/04/20 09:55:08;;;;;;;4.43;1.30;;;12.50;90.30;;;;;;5346980;26;19997;-50
2024/04/20 09:57:35;;;;;;;1.67;0.90;;;12.50;90.60;;;;;;5346722;26;20012;-50
2024/04/20 10:00:02;;;;;;;1.23;0.73;;;12.50;91.50;;;;;;5345142;26;20000;-49
2024/04/20 10:02:29;;;;;;;3.40;0.98;;;12.50;90.90;;;;;;5345685;26;20008;-48
2024/04/20 10:04:58;;;;;;;4.13;1.00;;;12.40;90.90;;;;;;5346147;26;20020;-48
2024/04/20 10:07:29;;;;;;;2.47;1.48;;;12.50;91.10;;;;;;5346755;26;20047;-52
2024/04/20 10:09:58;;;;;;;4.40;1.33;;;12.60;91.20;;;;;;5346570;26;20028;-49
2024/04/20 10:12:24;;;;;;;1.42;1.30;;;12.10;91.30;;;;;;5345823;26;19997;-49
2024/04/20 10:14:51;;;;;;;3.47;1.05;;;12.20;92.10;;;;;;5346626;26;19997;-50
2024/04/20 10:17:17;;;;;;;0.75;0.75;;;12.10;92.20;;;;;;5346350;26;20001;-49
2024/04/20 10:19:43;;;;;;;8.52;1.20;;;12.00;92.30;;;;;;5346493;26;20045;-49
2024/04/20 10:22:13;;;;;;;2.20;1.20;;;12.00;92.70;;;;;;5345668;26;20001;-50
2024/04/20 10:24:53;;;;;;;2.55;1.33;;;12.10;92.80;;;;;;5346528;26;20418;-49
2024/04/20 10:27:31;;;;;;;1.48;1.20;;;11.90;92.40;;;;;;5344242;26;20009;-50
2024/04/20 10:30:19;;;;;;;2.42;1.20;;;11.80;94.00;;;;;;5346098;26;20033;-52
2024/04/20 10:32:45;;;;;;;3.83;1.30;;;11.90;93.90;;;;;;5344507;26;20478;-49
2024/04/20 10:35:16;;;;;;;1.40;1.30;;;11.90;94.50;;;;;;5346021;26;20001;-51
2024/04/20 10:37:41;;;;;;;3.10;1.40;;;12.00;94.70;;;;;;5345943;26;20448;-52
2024/04/20 10:40:11;;;;;;;1.85;1.40;;;11.90;95.20;;;;;;5345256;26;19997;-52
2024/04/20 10:42:37;;;;;;;4.28;1.88;;;11.90;95.50;;;;;;5344897;26;20001;-50
2024/04/20 10:45:06;;;;;;;5.57;1.50;;;11.90;95.60;;;;;;5343216;26;20496;-50
2024/04/20 10:47:35;;;;;;;4.95;2.35;;;11.90;96.30;;;;;;5345805;26;20083;-54
2024/04/20 10:50:01;;;;;;;4.88;2.35;;;11.90;97.80;;;;;;5346039;26;20001;-49
2024/04/20 10:52:27;;;;;;;6.38;2.17;;;11.80;98.80;;;;;;5345156;26;20009;-50
2024/04/20 10:54:53;;;;;;;5.57;2.13;;;11.90;99.90;;;;;;5343997;26;19997;-53
2024/04/20 10:57:20;;;;;;;3.58;2.33;;;12.00;99.90;;;;;;5345967;26;20048;-55
2024/04/20 10:59:46;;;;;;;3.25;2.13;;;12.00;99.90;;;;;;5344002;26;20486;-54
2024/04/20 11:02:14;;;;;;;4.97;2.47;;;11.80;99.90;;;;;;5345193;26;20440;-51
2024/04/20 11:04:42;;;;;;;4.65;2.70;;;11.70;99.90;;;;;;5345761;26;20007;-52
2024/04/20 11:07:08;;;;;;;6.35;2.47;;;11.80;99.90;;;;;;5343790;26;20151;-50
2024/04/20 11:09:35;;;;;;;3.30;2.70;;;11.80;99.90;;;;;;5345631;26;20005;-49
2024/04/20 11:12:02;;;;;;;4.03;2.60;;;11.80;99.90;;;;;;5367762;21;20333;-39
2024/04/20 11:14:28;;;;;;;7.07;2.47;;;11.80;99.90;;;;;;5377892;26;20458;-43
2024/04/20 11:16:54;;;;;;;2.83;2.30;;;11.90;99.90;;;;;;5380745;26;20335;-43
2024/04/20 11:19:20;;;;;;;3.55;2.20;;;11.70;99.90;;;;;;5380820;26;19993;-46
2024/04/20 11:21:46;;;;;;;1.65;1.60;;;11.50;99.90;;;;;;5378381;26;19996;-46
2024/04/20 11:24:12;;;;;;;2.28;1.50;;;11.20;99.90;;;;;;5345747;26;20501;-48
2024/04/20 11:26:37;;;;;;;1.67;1.35;;;11.20;99.90;;;;;;5345428;26;20001;-48
2024/04/20 11:29:04;;;;;;;1.52;1.40;;;11.00;99.90;;;;;;5315054;26;20323;-46
2024/04/20 11:31:29;;;;;;;1.73;1.63;;;11.40;99.90;;;;;;5345307;26;20004;-45
2024/04/20 11:33:55;;;;;;;3.85;1.88;;;11.60;99.90;;;;;;5345519;26;19993;-48
2024/04/20 11:36:20;;;;;;;3.42;2.00;;;11.80;99.90;;;;;;5345586;26;20391;-46
2024/04/20 11:38:46;;;;;;;2.97;2.08;;;12.10;99.90;;;;;;5345790;26;20009;-44
2024/04/20 11:41:23;;;;;;;2.20;2.00;;;12.20;99.90;;;;;;5343066;26;20455;-45
2024/04/20 11:43:48;;;;;;;4.57;2.33;;;12.30;99.90;;;;;;5344286;26;20001;-44
2024/04/20 11:46:13;;;;;;;4.40;1.92;;;12.30;99.90;;;;;;5344221;26;20001;-45
2024/04/20 11:48:39;;;;;;;4.63;2.17;;;12.40;99.90;;;;;;5344957;26;20005;-43
2024/04/20 11:51:07;;;;;;;1.45;1.35;;;12.40;99.90;;;;;;5344597;26;20410;-48
2024/04/20 11:56:20;;;;;;;3.17;2.70;;;12.60;99.90;;;;;;5343961;26;20083;-44
2024/04/20 11:58:48;;;;;;;25.27;16.63;;;12.70;99.90;;;;;;5344457;26;20092;-50
2024/04/20 12:01:13;;;;;;;72.20;36.53;;;12.70;99.90;;;;;;5344511;26;19997;-43
2024/04/20 12:03:39;;;;;;;3.88;2.63;;;12.70;99.90;;;;;;5313421;26;20005;-44
2024/04/20 12:06:09;;;;;;;1.75;1.60;;;12.70;99.90;;;;;;5370202;26;20451;-40
2024/04/20 12:08:35;;;;;;;3.30;1.95;;;12.80;99.90;;;;;;5368740;26;20001;-42
2024/04/20 12:11:01;;;;;;;2.95;1.90;;;12.40;99.90;;;;;;5304201;26;20001;-43
2024/04/20 12:13:27;;;;;;;1.38;1.30;;;12.20;99.90;;;;;;5338636;26;20505;-44
2024/04/20 12:15:53;;;;;;;0.95;0.95;;;11.80;99.90;;;;;;5324661;26;20082;-42
2024/04/20 12:18:20;;;;;;;1.50;1.40;;;11.50;99.90;;;;;;5320375;26;20645;-41
2024/04/20 12:20:45;;;;;;;1.25;1.15;;;11.40;99.90;;;;;;5299189;26;20461;-42
2024/04/20 12:23:11;;;;;;;1.75;1.65;;;10.90;99.90;;;;;;5330709;26;20067;-47
2024/04/20 12:25:36;;;;;;;1.95;1.80;;;10.60;99.90;;;;;;5314844;26;20024;-40
2024/04/20 12:28:03;;;;;;;1.30;1.20;;;10.30;99.90;;;;;;5340316;26;20016;-43
2024/04/20 12:30:28;;;;;;;1.20;1.10;;;10.20;99.90;;;;;;5343674;26;20411;-45
2024/04/20 12:32:54;;;;;;;1.15;1.05;;;10.20;99.90;;;;;;5343727;26;20074;-43
2024/04/20 12:35:19;;;;;;;1.60;1.08;;;10.40;99.90;;;;;;5343836;26;20012;-43
2024/04/20 12:37:45;;;;;;;1.25;1.17;;;10.30;99.90;;;;;;5312989;26;20013;-46
2024/04/20 12:40:11;;;;;;;1.55;1.40;;;10.50;99.90;;;;;;5340331;26;20075;-43
2024/04/20 12:42:37;;;;;;;0.90;0.90;;;10.00;99.90;;;;;;5339214;26;20040;-41
2024/04/20 12:45:02;;;;;;;0.93;0.93;;;8.90;99.90;;;;;;5341974;26;20008;-45
2024/04/20 12:47:28;;;;;;;1.02;0.93;;;8.60;99.90;;;;;;5343294;26;20001;-43
2024/04/20 12:49:53;;;;;;;2.72;0.85;;;8.40;99.90;;;;;;5340439;26;20074;-41